Time;durP1;ratioP1;P1;durP2;ratioP2;P2;SDS_P1;SDS_P2;PMS_P1;PMS_P2;Temp;Humidity;BMP_temperature;BMP_pressure;BME280_temperature;BME280_humidity;BME280_pressure;Samples;Min_cycle;Max_cycle;Signal;HPM_P1;HPM_P2
2021/12/06 00:01:16;;;;;;;16.83;10.50;;;;;;;;;;5077716;28;20077;-44
2021/12/06 00:03:57;;;;;;;17.27;11.80;;;;;;;;;;5076366;28;20355;-49
2021/12/06 00:06:26;;;;;;;18.85;11.43;;;;;;;;;;5079900;28;20111;-45
2021/12/06 00:08:52;;;;;;;23.92;12.77;;;;;;;;;;5080289;28;20508;-43
2021/12/06 00:11:18;;;;;;;21.88;12.55;;;;;;;;;;5074321;28;20047;-44
2021/12/06 00:13:47;;;;;;;21.55;12.88;;;;;;;;;;5074938;28;20097;-45
2021/12/06 00:16:18;;;;;;;18.10;11.73;;;;;;;;;;5076195;28;20039;-46
2021/12/06 00:18:46;;;;;;;17.92;11.25;;;;;;;;;;5079081;28;20028;-46
2021/12/06 00:21:12;;;;;;;16.67;10.07;;;;;;;;;;5076070;28;20032;-45
2021/12/06 00:23:39;;;;;;;14.82;9.10;;;;;;;;;;5081213;28;20028;-44
2021/12/06 00:26:07;;;;;;;14.90;9.90;;;;;;;;;;5078481;28;20074;-44
2021/12/06 00:28:34;;;;;;;16.83;9.57;;;;;;;;;;5079386;28;20028;-43
2021/12/06 00:31:00;;;;;;;12.15;7.85;;;;;;;;;;5080314;28;20469;-45
2021/12/06 00:33:27;;;;;;;12.40;7.63;;;;;;;;;;5076806;28;20445;-44
2021/12/06 00:35:56;;;;;;;14.15;7.88;;;;;;;;;;5082993;28;20121;-44
2021/12/06 00:38:22;;;;;;;14.15;8.85;;;;;;;;;;5076021;28;20159;-43
2021/12/06 00:40:49;;;;;;;21.10;8.23;;;;;;;;;;5079269;28;20103;-44
2021/12/06 00:43:15;;;;;;;14.55;6.97;;;;;;;;;;5086261;28;20032;-43
2021/12/06 00:45:41;;;;;;;18.67;7.53;;;;;;;;;;5079211;28;20038;-44
2021/12/06 00:48:07;;;;;;;13.68;7.78;;;;;;;;;;5079974;28;20129;-46
2021/12/06 00:50:38;;;;;;;15.93;6.80;;;;;;;;;;5075196;28;20036;-46
2021/12/06 00:53:05;;;;;;;13.75;7.13;;;;;;;;;;5080786;28;20063;-52
2021/12/06 00:55:33;;;;;;;15.40;8.15;;;;;;;;;;5076247;28;20047;-53
2021/12/06 00:57:59;;;;;;;11.60;6.85;;;;;;;;;;5079083;28;20082;-47
2021/12/06 01:00:47;;;;;;;13.68;6.97;;;;;;;;;;5072761;28;20070;-51
2021/12/06 01:03:25;;;;;;;16.60;7.78;;;;;;;;;;5073230;28;20108;-52
2021/12/06 01:05:51;;;;;;;10.98;6.05;;;;;;;;;;5076162;28;20028;-53
2021/12/06 01:08:18;;;;;;;9.55;5.78;;;;;;;;;;5081623;28;20089;-49
2021/12/06 01:10:45;;;;;;;10.60;5.20;;;;;;;;;;5073176;28;21896;-49
2021/12/06 01:13:11;;;;;;;9.98;5.05;;;;;;;;;;5078820;28;20036;-47
2021/12/06 01:15:38;;;;;;;7.18;4.03;;;;;;;;;;5077701;28;20036;-53
2021/12/06 01:18:06;;;;;;;5.85;4.20;;;;;;;;;;5071155;28;20477;-53
2021/12/06 01:20:39;;;;;;;4.35;3.47;;;;;;;;;;5076082;28;20502;-53
2021/12/06 01:23:09;;;;;;;5.75;3.47;;;;;;;;;;5081144;28;20115;-53
2021/12/06 01:41:25;;;;;;;6.50;4.18;;;;;;;;;;5073509;28;20465;-50
2021/12/06 01:44:12;;;;;;;5.80;4.00;;;;;;;;;;5074500;28;20048;-53
2021/12/06 01:46:42;;;;;;;15.23;6.43;;;;;;;;;;5070794;28;20465;-53
2021/12/06 01:49:08;;;;;;;13.27;7.18;;;;;;;;;;5082408;28;20475;-53
2021/12/06 01:51:35;;;;;;;9.75;5.75;;;;;;;;;;5076921;28;20024;-52
2021/12/06 01:54:01;;;;;;;8.57;4.90;;;;;;;;;;5079551;28;20500;-46
2021/12/06 01:56:27;;;;;;;7.05;4.20;;;;;;;;;;5080023;28;20029;-45
2021/12/06 01:58:53;;;;;;;3.92;3.15;;;;;;;;;;5074605;28;20036;-46
2021/12/06 02:01:19;;;;;;;5.45;3.30;;;;;;;;;;5082216;28;20031;-46
2021/12/06 02:03:45;;;;;;;4.60;2.97;;;;;;;;;;5083948;28;20111;-48
2021/12/06 02:06:11;;;;;;;4.45;2.67;;;;;;;;;;5078509;28;20135;-45
2021/12/06 02:08:37;;;;;;;3.65;2.80;;;;;;;;;;5081607;28;20044;-45
2021/12/06 02:11:04;;;;;;;4.90;2.60;;;;;;;;;;5076849;28;20040;-45
2021/12/06 02:13:36;;;;;;;5.03;2.25;;;;;;;;;;5080132;28;20103;-45
2021/12/06 02:16:04;;;;;;;5.32;2.50;;;;;;;;;;5080993;28;20036;-45
2021/12/06 02:21:20;;;;;;;4.25;2.50;;;;;;;;;;5077811;28;20025;-45
2021/12/06 02:23:47;;;;;;;4.68;2.60;;;;;;;;;;5075229;28;20105;-48
2021/12/06 02:26:14;;;;;;;5.60;3.45;;;;;;;;;;5076619;28;20036;-52
2021/12/06 02:28:41;;;;;;;8.15;5.20;;;;;;;;;;5072971;28;20040;-45
2021/12/06 02:31:08;;;;;;;13.32;6.35;;;;;;;;;;5076632;28;20037;-45
2021/12/06 02:33:33;;;;;;;13.77;6.78;;;;;;;;;;5072899;28;20392;-50
2021/12/06 02:35:59;;;;;;;7.85;5.45;;;;;;;;;;5074714;28;20036;-53
2021/12/06 02:38:25;;;;;;;9.80;5.57;;;;;;;;;;5073605;28;20055;-47
2021/12/06 02:40:51;;;;;;;4.95;3.47;;;;;;;;;;5071752;28;20119;-49
2021/12/06 02:43:17;;;;;;;5.13;3.55;;;;;;;;;;5080183;28;20044;-45
2021/12/06 02:45:43;;;;;;;3.35;2.55;;;;;;;;;;5076657;28;20060;-48
2021/12/06 02:48:11;;;;;;;3.10;2.58;;;;;;;;;;5080817;28;20454;-50
2021/12/06 02:50:45;;;;;;;3.60;2.10;;;;;;;;;;5079390;28;20371;-45
2021/12/06 02:53:11;;;;;;;2.00;1.80;;;;;;;;;;5085912;28;20139;-46
2021/12/06 02:55:38;;;;;;;2.10;1.90;;;;;;;;;;5083468;28;20533;-46
2021/12/06 02:58:15;;;;;;;2.75;1.65;;;;;;;;;;5077100;28;20037;-46
2021/12/06 03:00:45;;;;;;;2.50;2.05;;;;;;;;;;5080989;28;20563;-46
2021/12/06 03:03:11;;;;;;;2.20;1.85;;;;;;;;;;5079628;28;20448;-47
2021/12/06 03:05:38;;;;;;;2.03;1.83;;;;;;;;;;5080625;28;20028;-48
2021/12/06 03:08:06;;;;;;;2.85;1.63;;;;;;;;;;5083080;28;20085;-46
2021/12/06 03:10:32;;;;;;;2.92;1.70;;;;;;;;;;5086150;28;20449;-45
2021/12/06 03:12:58;;;;;;;3.50;1.77;;;;;;;;;;5084806;28;20067;-46
2021/12/06 03:15:24;;;;;;;2.45;1.70;;;;;;;;;;5082285;28;20029;-51
2021/12/06 03:17:49;;;;;;;2.13;1.80;;;;;;;;;;5080431;28;20036;-51
2021/12/06 03:20:16;;;;;;;1.73;1.63;;;;;;;;;;5085961;28;20023;-46
2021/12/06 03:22:44;;;;;;;2.70;1.70;;;;;;;;;;5076458;28;20388;-52
2021/12/06 03:25:12;;;;;;;2.35;1.92;;;;;;;;;;5078909;28;20044;-45
2021/12/06 03:27:37;;;;;;;2.17;1.98;;;;;;;;;;5080998;28;20107;-47
2021/12/06 03:30:07;;;;;;;1.83;1.70;;;;;;;;;;5079987;28;20143;-47
2021/12/06 03:32:33;;;;;;;3.90;1.70;;;;;;;;;;5074806;28;20036;-48
2021/12/06 03:34:59;;;;;;;1.75;1.65;;;;;;;;;;5075597;28;20036;-45
2021/12/06 03:37:26;;;;;;;2.13;1.60;;;;;;;;;;5082903;28;20388;-46
2021/12/06 03:39:51;;;;;;;3.25;1.50;;;;;;;;;;5078115;28;20039;-46
2021/12/06 03:42:21;;;;;;;2.08;1.83;;;;;;;;;;5080007;28;20057;-46
2021/12/06 03:44:46;;;;;;;1.85;1.50;;;;;;;;;;5076572;28;20027;-47
2021/12/06 03:47:19;;;;;;;1.48;1.35;;;;;;;;;;5073962;28;20404;-49
2021/12/06 03:49:45;;;;;;;1.40;1.20;;;;;;;;;;5080145;28;20040;-46
2021/12/06 03:52:13;;;;;;;1.70;1.40;;;;;;;;;;5079518;28;20039;-48
2021/12/06 03:54:42;;;;;;;1.50;1.38;;;;;;;;;;5076885;28;20024;-48
2021/12/06 03:57:08;;;;;;;2.25;1.50;;;;;;;;;;5077805;28;20473;-45
2021/12/06 03:59:34;;;;;;;1.35;1.17;;;;;;;;;;5079017;28;20362;-47
2021/12/06 04:02:00;;;;;;;1.40;1.30;;;;;;;;;;5084565;28;20042;-51
2021/12/06 04:04:26;;;;;;;3.25;1.30;;;;;;;;;;5079839;28;20032;-45
2021/12/06 04:06:53;;;;;;;1.38;1.17;;;;;;;;;;5084357;28;20507;-48
2021/12/06 04:09:19;;;;;;;1.30;1.20;;;;;;;;;;5078448;28;20358;-50
2021/12/06 04:11:45;;;;;;;1.85;1.08;;;;;;;;;;5080974;28;20050;-48
2021/12/06 04:14:12;;;;;;;1.20;0.90;;;;;;;;;;5084234;28;20483;-45
2021/12/06 04:16:38;;;;;;;1.30;1.20;;;;;;;;;;5077450;28;20036;-52
2021/12/06 04:19:05;;;;;;;1.10;1.10;;;;;;;;;;5080379;28;20023;-47
2021/12/06 04:21:32;;;;;;;1.42;1.25;;;;;;;;;;5081754;28;20040;-45
2021/12/06 04:23:58;;;;;;;3.88;1.30;;;;;;;;;;5072783;28;20048;-46
2021/12/06 04:26:24;;;;;;;1.40;1.30;;;;;;;;;;5082223;28;20028;-45
2021/12/06 04:28:58;;;;;;;2.25;1.40;;;;;;;;;;5076254;28;20043;-46
2021/12/06 04:31:29;;;;;;;2.60;1.33;;;;;;;;;;5084332;28;20040;-51
2021/12/06 04:33:56;;;;;;;1.10;1.00;;;;;;;;;;5077360;28;20024;-47
2021/12/06 04:36:21;;;;;;;1.10;1.10;;;;;;;;;;5082146;28;20035;-48
2021/12/06 04:38:47;;;;;;;1.35;1.20;;;;;;;;;;5077492;28;20884;-48
2021/12/06 04:41:13;;;;;;;1.13;1.10;;;;;;;;;;5076286;28;20058;-48
2021/12/06 04:43:39;;;;;;;1.17;1.10;;;;;;;;;;5079382;28;20549;-45
2021/12/06 04:46:04;;;;;;;1.20;1.20;;;;;;;;;;5079707;28;20024;-45
2021/12/06 04:48:30;;;;;;;3.92;2.20;;;;;;;;;;5072887;28;20032;-50
2021/12/06 04:50:56;;;;;;;1.63;1.52;;;;;;;;;;5106069;27;20525;-45
2021/12/06 04:53:25;;;;;;;1.73;1.63;;;;;;;;;;5079113;28;20559;-45
2021/12/06 04:56:02;;;;;;;1.48;1.38;;;;;;;;;;5071912;28;20119;-45
2021/12/06 04:58:31;;;;;;;1.00;1.00;;;;;;;;;;5076319;28;20054;-46
2021/12/06 05:01:07;;;;;;;1.45;1.35;;;;;;;;;;5080501;28;20032;-46
2021/12/06 05:03:34;;;;;;;1.85;1.45;;;;;;;;;;5074021;28;20628;-48
2021/12/06 05:06:05;;;;;;;1.35;1.25;;;;;;;;;;5072176;28;20106;-49
2021/12/06 05:08:39;;;;;;;3.80;1.20;;;;;;;;;;5078162;28;20524;-46
2021/12/06 05:11:06;;;;;;;1.02;1.02;;;;;;;;;;5076353;28;20029;-48
2021/12/06 05:13:33;;;;;;;1.33;1.23;;;;;;;;;;5081870;28;20135;-49
2021/12/06 05:15:59;;;;;;;1.45;1.02;;;;;;;;;;5078298;28;20043;-46
2021/12/06 05:18:25;;;;;;;1.10;1.00;;;;;;;;;;5072953;28;20028;-49
2021/12/06 05:20:51;;;;;;;1.48;1.10;;;;;;;;;;5076956;28;20035;-45
2021/12/06 05:23:18;;;;;;;1.25;1.00;;;;;;;;;;5082652;28;20071;-49
2021/12/06 05:25:44;;;;;;;1.17;1.15;;;;;;;;;;5079776;28;20044;-49
2021/12/06 05:28:10;;;;;;;1.67;1.40;;;;;;;;;;5079943;28;20479;-45
2021/12/06 05:30:37;;;;;;;1.42;1.33;;;;;;;;;;5078066;28;20039;-48
2021/12/06 05:33:07;;;;;;;2.50;1.10;;;;;;;;;;5095161;28;20177;-48
2021/12/06 05:35:33;;;;;;;1.10;1.10;;;;;;;;;;5079048;28;20077;-47
2021/12/06 05:38:01;;;;;;;1.45;1.30;;;;;;;;;;5075941;28;20419;-49
2021/12/06 05:40:30;;;;;;;1.50;1.10;;;;;;;;;;5079610;28;20070;-50
2021/12/06 05:42:57;;;;;;;1.35;1.25;;;;;;;;;;5078239;28;20081;-48
2021/12/06 05:45:26;;;;;;;1.45;1.30;;;;;;;;;;5077496;28;20034;-51
2021/12/06 05:47:52;;;;;;;3.08;1.60;;;;;;;;;;5075080;28;20497;-45
2021/12/06 05:50:19;;;;;;;1.90;1.30;;;;;;;;;;5080861;28;20069;-49
2021/12/06 05:52:45;;;;;;;1.35;1.25;;;;;;;;;;5072690;28;20054;-49
2021/12/06 05:55:11;;;;;;;1.92;1.38;;;;;;;;;;5081359;28;20531;-45
2021/12/06 05:57:38;;;;;;;1.23;1.13;;;;;;;;;;5079875;28;20056;-51
2021/12/06 06:00:08;;;;;;;1.33;1.23;;;;;;;;;;5079318;28;20032;-51
2021/12/06 06:02:43;;;;;;;1.25;1.17;;;;;;;;;;5077809;28;20039;-47
2021/12/06 06:05:09;;;;;;;1.00;1.00;;;;;;;;;;5076157;28;20043;-50
2021/12/06 06:07:36;;;;;;;1.48;1.38;;;;;;;;;;5078432;28;20675;-52
2021/12/06 06:10:03;;;;;;;1.50;1.40;;;;;;;;;;5080848;28;20040;-48
2021/12/06 06:12:29;;;;;;;3.58;1.88;;;;;;;;;;5077193;28;20028;-53
2021/12/06 06:14:54;;;;;;;1.48;1.30;;;;;;;;;;5079222;28;20035;-52
2021/12/06 06:17:21;;;;;;;1.40;1.30;;;;;;;;;;5077226;28;20055;-47
2021/12/06 06:19:52;;;;;;;1.00;1.00;;;;;;;;;;5074493;28;20028;-48
2021/12/06 06:22:18;;;;;;;3.28;1.20;;;;;;;;;;5081411;28;20059;-50
2021/12/06 06:24:44;;;;;;;2.00;1.70;;;;;;;;;;5080829;28;20105;-47
2021/12/06 06:27:10;;;;;;;2.75;1.70;;;;;;;;;;5077933;28;20036;-47
2021/12/06 06:29:36;;;;;;;1.55;1.45;;;;;;;;;;5077551;28;20040;-47
2021/12/06 06:32:04;;;;;;;1.02;1.00;;;;;;;;;;5077345;28;20051;-51
2021/12/06 06:34:30;;;;;;;1.60;1.00;;;;;;;;;;5075514;28;20037;-52
2021/12/06 06:36:56;;;;;;;0.85;0.85;;;;;;;;;;5079710;28;20078;-52
2021/12/06 06:39:22;;;;;;;0.80;0.80;;;;;;;;;;5077235;28;20036;-48
2021/12/06 06:41:50;;;;;;;1.67;0.88;;;;;;;;;;5082398;28;20039;-47
2021/12/06 06:44:17;;;;;;;1.10;1.00;;;;;;;;;;5075824;28;20058;-46
2021/12/06 06:46:44;;;;;;;1.08;0.98;;;;;;;;;;5079706;28;20038;-50
2021/12/06 06:49:11;;;;;;;1.10;1.05;;;;;;;;;;5078963;28;20144;-46
2021/12/06 06:51:38;;;;;;;1.35;1.25;;;;;;;;;;5083411;28;20063;-50
2021/12/06 06:54:04;;;;;;;1.02;0.90;;;;;;;;;;5077116;28;20036;-48
2021/12/06 06:56:30;;;;;;;1.33;1.23;;;;;;;;;;5078977;28;20526;-49
2021/12/06 06:58:57;;;;;;;0.80;0.80;;;;;;;;;;5080390;28;20024;-52
2021/12/06 07:01:23;;;;;;;0.73;0.73;;;;;;;;;;5083117;28;20468;-52
2021/12/06 07:03:50;;;;;;;1.48;1.08;;;;;;;;;;5077950;28;20134;-49
2021/12/06 07:06:16;;;;;;;0.85;0.85;;;;;;;;;;5077393;28;20415;-53
2021/12/06 07:08:43;;;;;;;1.58;1.13;;;;;;;;;;5074625;28;20041;-50
2021/12/06 07:11:09;;;;;;;1.00;1.00;;;;;;;;;;5078355;28;20028;-49
2021/12/06 07:13:38;;;;;;;1.23;1.13;;;;;;;;;;5085721;28;20123;-47
2021/12/06 07:16:06;;;;;;;1.65;1.55;;;;;;;;;;5080363;28;20036;-51
2021/12/06 07:18:31;;;;;;;0.90;0.90;;;;;;;;;;5078214;28;20119;-50
2021/12/06 07:20:57;;;;;;;1.00;1.00;;;;;;;;;;5084881;28;20545;-50
2021/12/06 07:23:23;;;;;;;0.98;0.98;;;;;;;;;;5079311;28;20037;-52
2021/12/06 07:25:49;;;;;;;1.73;1.10;;;;;;;;;;5078104;28;20086;-52
2021/12/06 07:28:15;;;;;;;1.30;1.20;;;;;;;;;;5085770;28;20032;-49
2021/12/06 07:30:41;;;;;;;1.67;1.30;;;;;;;;;;5080474;28;20086;-47
2021/12/06 07:33:07;;;;;;;1.25;1.17;;;;;;;;;;5076898;28;20069;-52
2021/12/06 07:35:33;;;;;;;1.65;1.20;;;;;;;;;;5073679;28;20473;-46
2021/12/06 07:38:00;;;;;;;1.73;1.08;;;;;;;;;;5075333;28;20470;-54
2021/12/06 07:40:27;;;;;;;1.10;1.10;;;;;;;;;;5079179;28;20078;-49
2021/12/06 07:42:52;;;;;;;0.80;0.80;;;;;;;;;;5080141;28;20107;-53
2021/12/06 07:45:18;;;;;;;1.70;1.02;;;;;;;;;;5075302;28;20127;-53
2021/12/06 07:47:46;;;;;;;1.10;1.10;;;;;;;;;;5075168;28;20078;-47
2021/12/06 07:50:16;;;;;;;1.05;1.02;;;;;;;;;;5083846;28;20127;-49
2021/12/06 07:52:43;;;;;;;1.08;1.00;;;;;;;;;;5080628;28;20036;-53
2021/12/06 07:55:12;;;;;;;0.80;0.80;;;;;;;;;;5076592;28;20058;-53
2021/12/06 07:57:37;;;;;;;1.30;1.05;;;;;;;;;;5082352;28;20036;-48
2021/12/06 08:00:10;;;;;;;0.90;0.90;;;;;;;;;;5077276;28;20036;-48
2021/12/06 08:02:36;;;;;;;1.30;1.20;;;;;;;;;;5075353;28;20085;-50
2021/12/06 08:07:48;;;;;;;1.00;1.00;;;;;;;;;;5076209;28;20044;-46
2021/12/06 08:10:14;;;;;;;2.35;1.70;;;;;;;;;;5081669;28;20036;-51
2021/12/06 08:12:39;;;;;;;3.17;1.70;;;;;;;;;;5077150;28;20024;-53
2021/12/06 08:15:06;;;;;;;1.83;1.70;;;;;;;;;;5079948;28;20081;-53
2021/12/06 08:17:31;;;;;;;1.67;1.58;;;;;;;;;;5089261;28;20472;-47
2021/12/06 08:19:57;;;;;;;1.33;1.23;;;;;;;;;;5072804;28;20048;-48
2021/12/06 08:22:22;;;;;;;2.38;0.90;;;;;;;;;;5075874;28;20389;-52
2021/12/06 08:24:48;;;;;;;3.88;1.88;;;;;;;;;;5078594;28;20051;-54
2021/12/06 08:27:14;;;;;;;2.58;1.17;;;;;;;;;;5077740;28;20059;-54
2021/12/06 08:29:39;;;;;;;1.60;1.50;;;;;;;;;;5083619;28;20122;-50
2021/12/06 08:32:07;;;;;;;2.55;1.13;;;;;;;;;;5080345;28;20024;-52
2021/12/06 08:34:33;;;;;;;1.02;1.02;;;;;;;;;;5076693;28;20545;-52
2021/12/06 08:37:01;;;;;;;1.70;1.60;;;;;;;;;;5075231;28;20037;-55
2021/12/06 08:39:26;;;;;;;1.85;1.50;;;;;;;;;;5080340;28;20111;-50
2021/12/06 08:41:52;;;;;;;1.30;1.20;;;;;;;;;;5080129;28;20120;-53
2021/12/06 08:44:18;;;;;;;2.85;1.33;;;;;;;;;;5080082;28;20515;-52
2021/12/06 08:46:44;;;;;;;2.55;1.42;;;;;;;;;;5078314;28;20080;-50
2021/12/06 08:49:10;;;;;;;3.55;1.27;;;;;;;;;;5077448;28;20381;-54
2021/12/06 08:51:40;;;;;;;1.60;1.27;;;;;;;;;;5080523;28;20028;-53
2021/12/06 08:54:08;;;;;;;2.10;1.55;;;;;;;;;;5076739;28;20435;-52
2021/12/06 08:56:35;;;;;;;1.30;1.20;;;;;;;;;;5083609;28;20042;-51
2021/12/06 08:59:01;;;;;;;1.50;1.40;;;;;;;;;;5077982;28;20051;-53
2021/12/06 09:01:27;;;;;;;1.20;1.20;;;;;;;;;;5076767;28;20029;-53
2021/12/06 09:03:53;;;;;;;1.40;1.30;;;;;;;;;;5073938;28;20028;-47
2021/12/06 09:06:19;;;;;;;1.25;1.15;;;;;;;;;;5076327;28;20033;-53
2021/12/06 09:08:46;;;;;;;1.40;1.30;;;;;;;;;;5077680;28;20036;-54
2021/12/06 09:11:12;;;;;;;0.95;0.95;;;;;;;;;;5071490;28;20035;-47
2021/12/06 09:13:38;;;;;;;1.40;1.20;;;;;;;;;;5073833;28;20028;-52
2021/12/06 09:16:09;;;;;;;0.88;0.88;;;;;;;;;;5078120;28;20436;-54
2021/12/06 09:18:38;;;;;;;0.80;0.80;;;;;;;;;;5077532;28;20035;-49
2021/12/06 09:21:07;;;;;;;0.88;0.85;;;;;;;;;;5074297;28;20032;-49
2021/12/06 09:23:33;;;;;;;2.50;1.00;;;;;;;;;;5077833;28;20036;-49
2021/12/06 09:25:59;;;;;;;1.05;0.95;;;;;;;;;;5078455;28;20385;-48
2021/12/06 09:28:27;;;;;;;0.90;0.90;;;;;;;;;;5080044;28;20037;-50
2021/12/06 09:30:52;;;;;;;2.20;1.10;;;;;;;;;;5080446;28;20377;-53
2021/12/06 09:33:19;;;;;;;5.43;1.30;;;;;;;;;;5072440;28;20032;-54
2021/12/06 09:35:46;;;;;;;0.77;0.77;;;;;;;;;;5077421;28;20044;-53
2021/12/06 09:38:15;;;;;;;1.85;0.80;;;;;;;;;;5074064;28;20101;-50
2021/12/06 09:40:44;;;;;;;0.98;0.80;;;;;;;;;;5074425;28;20063;-47
2021/12/06 09:43:11;;;;;;;1.40;1.15;;;;;;;;;;5075004;28;20492;-51
2021/12/06 09:45:38;;;;;;;0.93;0.70;;;;;;;;;;5075719;28;20040;-50
2021/12/06 09:48:05;;;;;;;0.95;0.90;;;;;;;;;;5077243;28;20476;-45
2021/12/06 09:50:38;;;;;;;0.88;0.88;;;;;;;;;;5084327;28;20042;-47
2021/12/06 09:53:12;;;;;;;0.88;0.88;;;;;;;;;;5074874;28;20043;-46
2021/12/06 09:55:38;;;;;;;0.90;0.90;;;;;;;;;;5077143;28;20060;-49
2021/12/06 09:58:05;;;;;;;1.55;0.90;;;;;;;;;;5080902;28;20419;-47
2021/12/06 10:00:37;;;;;;;0.40;0.40;;;;;;;;;;5076945;28;20358;-51
2021/12/06 10:03:03;;;;;;;0.77;0.77;;;;;;;;;;5074540;28;20036;-49
2021/12/06 10:05:29;;;;;;;0.85;0.77;;;;;;;;;;5079867;28;20024;-50
2021/12/06 10:07:57;;;;;;;2.58;0.60;;;;;;;;;;5079052;28;20111;-47
2021/12/06 10:10:25;;;;;;;0.30;0.30;;;;;;;;;;5071274;28;20466;-46
2021/12/06 10:12:54;;;;;;;0.70;0.70;;;;;;;;;;5069634;28;20034;-49
2021/12/06 10:15:22;;;;;;;0.55;0.55;;;;;;;;;;5081076;28;20043;-46
2021/12/06 10:17:48;;;;;;;0.43;0.30;;;;;;;;;;5076660;28;20344;-46
2021/12/06 10:20:15;;;;;;;1.25;0.70;;;;;;;;;;5074563;28;20026;-53
2021/12/06 10:22:41;;;;;;;0.98;0.70;;;;;;;;;;5080997;28;20519;-46
2021/12/06 10:25:07;;;;;;;0.50;0.50;;;;;;;;;;5072581;28;20037;-46
2021/12/06 10:27:33;;;;;;;0.60;0.50;;;;;;;;;;5083636;28;20035;-48
2021/12/06 10:30:10;;;;;;;0.55;0.43;;;;;;;;;;5082124;28;20037;-46
2021/12/06 10:32:39;;;;;;;1.38;0.90;;;;;;;;;;5073507;28;20036;-46
2021/12/06 10:35:15;;;;;;;0.60;0.50;;;;;;;;;;5074942;28;20044;-46
2021/12/06 10:37:47;;;;;;;0.68;0.68;;;;;;;;;;5079914;28;20535;-47
2021/12/06 10:40:20;;;;;;;2.20;0.70;;;;;;;;;;5075238;28;20032;-46
2021/12/06 10:42:48;;;;;;;0.70;0.70;;;;;;;;;;5078860;28;20044;-51
2021/12/06 10:45:21;;;;;;;0.80;0.80;;;;;;;;;;5071941;28;20043;-48
2021/12/06 10:48:05;;;;;;;0.50;0.50;;;;;;;;;;5074516;28;20047;-50
2021/12/06 10:50:32;;;;;;;2.13;0.73;;;;;;;;;;5076481;28;20032;-50
2021/12/06 10:53:00;;;;;;;0.63;0.63;;;;;;;;;;5077866;28;20032;-47
2021/12/06 10:55:30;;;;;;;1.42;1.00;;;;;;;;;;5075312;28;20084;-46
2021/12/06 10:58:07;;;;;;;2.83;0.70;;;;;;;;;;5071757;28;20039;-48
2021/12/06 11:00:36;;;;;;;0.50;0.50;;;;;;;;;;5075009;28;20028;-50
2021/12/06 11:03:02;;;;;;;0.52;0.52;;;;;;;;;;5078760;28;20124;-52
2021/12/06 11:05:32;;;;;;;0.45;0.45;;;;;;;;;;5073554;28;20169;-46
2021/12/06 11:08:07;;;;;;;0.40;0.40;;;;;;;;;;5079798;28;20044;-47
2021/12/06 11:10:44;;;;;;;0.75;0.50;;;;;;;;;;5079424;28;20044;-46
2021/12/06 11:13:12;;;;;;;0.40;0.40;;;;;;;;;;5079628;28;20024;-46
2021/12/06 11:15:55;;;;;;;6.22;0.63;;;;;;;;;;5078047;28;20059;-49
2021/12/06 11:18:31;;;;;;;3.20;0.55;;;;;;;;;;5081187;28;20044;-46
2021/12/06 11:20:57;;;;;;;1.00;0.98;;;;;;;;;;5085764;28;20480;-46
2021/12/06 11:23:23;;;;;;;0.60;0.60;;;;;;;;;;5079288;28;20028;-48
2021/12/06 11:26:01;;;;;;;0.82;0.80;;;;;;;;;;5082090;28;20058;-49
2021/12/06 11:28:30;;;;;;;0.90;0.90;;;;;;;;;;5083279;28;20385;-48
2021/12/06 11:31:04;;;;;;;0.40;0.40;;;;;;;;;;5077118;28;20033;-46
2021/12/06 11:33:33;;;;;;;0.60;0.60;;;;;;;;;;5081165;28;20493;-45
2021/12/06 11:36:00;;;;;;;0.47;0.47;;;;;;;;;;5076667;28;20055;-46
2021/12/06 11:38:30;;;;;;;0.40;0.40;;;;;;;;;;5082657;28;20031;-49
2021/12/06 11:40:58;;;;;;;0.85;0.52;;;;;;;;;;5075841;28;20086;-48
2021/12/06 11:43:25;;;;;;;1.30;0.73;;;;;;;;;;5076665;28;20016;-46
2021/12/06 11:45:57;;;;;;;0.50;0.50;;;;;;;;;;5079261;28;20071;-46
2021/12/06 11:48:30;;;;;;;0.47;0.47;;;;;;;;;;5081754;28;20044;-46
2021/12/06 11:51:05;;;;;;;0.93;0.80;;;;;;;;;;5079448;28;20037;-46
2021/12/06 11:53:37;;;;;;;1.38;1.20;;;;;;;;;;5079474;28;20032;-45
2021/12/06 11:56:07;;;;;;;0.70;0.65;;;;;;;;;;5076071;28;20032;-47
2021/12/06 11:58:36;;;;;;;0.60;0.60;;;;;;;;;;5075339;28;20472;-46
2021/12/06 12:01:15;;;;;;;0.70;0.70;;;;;;;;;;5083703;28;20121;-48
2021/12/06 12:03:47;;;;;;;1.90;1.02;;;;;;;;;;5077448;28;20476;-46
2021/12/06 12:06:35;;;;;;;0.68;0.68;;;;;;;;;;5077138;28;20035;-48
2021/12/06 12:09:05;;;;;;;0.50;0.50;;;;;;;;;;5078158;28;20090;-50
2021/12/06 12:11:31;;;;;;;0.40;0.40;;;;;;;;;;5082465;28;20478;-50
2021/12/06 12:13:58;;;;;;;0.68;0.68;;;;;;;;;;5084664;28;20071;-46
2021/12/06 12:16:24;;;;;;;0.70;0.70;;;;;;;;;;5077019;28;20068;-46
2021/12/06 12:18:50;;;;;;;0.50;0.40;;;;;;;;;;5078831;28;20028;-46
2021/12/06 12:21:16;;;;;;;0.75;0.52;;;;;;;;;;5074570;28;20094;-47
2021/12/06 12:23:42;;;;;;;1.52;0.50;;;;;;;;;;5080693;28;20040;-45
2021/12/06 12:26:13;;;;;;;0.68;0.68;;;;;;;;;;5074768;28;20037;-46
2021/12/06 12:28:59;;;;;;;0.57;0.57;;;;;;;;;;5080510;28;20028;-46
2021/12/06 12:31:26;;;;;;;0.40;0.40;;;;;;;;;;5073962;28;20069;-45
2021/12/06 12:33:55;;;;;;;0.60;0.60;;;;;;;;;;5084774;28;20059;-48
2021/12/06 12:36:23;;;;;;;0.55;0.55;;;;;;;;;;5086610;28;20032;-46
2021/12/06 12:38:54;;;;;;;1.00;0.60;;;;;;;;;;5080202;28;20028;-48
2021/12/06 12:41:22;;;;;;;0.55;0.55;;;;;;;;;;5080219;28;20036;-45
2021/12/06 12:43:53;;;;;;;3.05;0.80;;;;;;;;;;5075650;28;20496;-46
2021/12/06 12:46:36;;;;;;;0.73;0.73;;;;;;;;;;5076445;28;20078;-51
2021/12/06 12:49:09;;;;;;;0.80;0.80;;;;;;;;;;5079119;28;20028;-48
2021/12/06 12:51:45;;;;;;;1.02;0.73;;;;;;;;;;5075253;28;20032;-50
2021/12/06 12:54:15;;;;;;;4.15;1.05;;;;;;;;;;5079126;28;20036;-45
2021/12/06 12:56:45;;;;;;;2.63;1.85;;;;;;;;;;5082862;28;20450;-47
2021/12/06 12:59:48;;;;;;;1.13;0.90;;;;;;;;;;5076711;28;20119;-50
2021/12/06 13:02:19;;;;;;;0.68;0.68;;;;;;;;;;5077478;28;20040;-45
2021/12/06 13:04:57;;;;;;;0.63;0.63;;;;;;;;;;5076401;28;20040;-47
2021/12/06 13:07:29;;;;;;;0.75;0.70;;;;;;;;;;5077594;28;20071;-45
2021/12/06 13:09:58;;;;;;;0.75;0.75;;;;;;;;;;5073420;28;20020;-49
2021/12/06 13:12:27;;;;;;;0.60;0.60;;;;;;;;;;5075345;28;20029;-45
2021/12/06 13:14:57;;;;;;;0.82;0.80;;;;;;;;;;5076373;28;20031;-46
2021/12/06 13:17:32;;;;;;;0.50;0.50;;;;;;;;;;5080171;28;20059;-46
2021/12/06 13:20:10;;;;;;;0.60;0.60;;;;;;;;;;5072008;28;20899;-47
2021/12/06 13:22:48;;;;;;;0.55;0.55;;;;;;;;;;5079849;28;20070;-46
2021/12/06 13:25:17;;;;;;;0.57;0.57;;;;;;;;;;5078766;28;20050;-45
2021/12/06 13:28:00;;;;;;;1.35;0.85;;;;;;;;;;5079455;28;20040;-51
2021/12/06 13:30:37;;;;;;;0.90;0.90;;;;;;;;;;5074719;28;20104;-47
2021/12/06 13:33:06;;;;;;;1.02;0.90;;;;;;;;;;5076725;28;20043;-46
2021/12/06 13:35:52;;;;;;;0.65;0.65;;;;;;;;;;5077858;28;20376;-46
2021/12/06 13:38:41;;;;;;;0.80;0.60;;;;;;;;;;5073655;28;20039;-47
2021/12/06 13:41:19;;;;;;;0.82;0.73;;;;;;;;;;5072826;28;20612;-50
2021/12/06 13:43:50;;;;;;;0.65;0.65;;;;;;;;;;5074854;28;20111;-48
2021/12/06 13:46:31;;;;;;;2.03;1.30;;;;;;;;;;5074448;28;20040;-46
2021/12/06 13:49:11;;;;;;;1.60;1.08;;;;;;;;;;5082418;28;20032;-52
2021/12/06 13:51:39;;;;;;;1.35;1.23;;;;;;;;;;5082889;28;20035;-47
2021/12/06 13:54:16;;;;;;;0.82;0.70;;;;;;;;;;5080621;28;20481;-45
2021/12/06 13:56:53;;;;;;;0.93;0.70;;;;;;;;;;5079690;28;20031;-52
2021/12/06 13:59:24;;;;;;;0.80;0.70;;;;;;;;;;5082625;28;20033;-46
2021/12/06 14:01:51;;;;;;;0.98;0.70;;;;;;;;;;5081398;28;20123;-45
2021/12/06 14:04:21;;;;;;;0.60;0.50;;;;;;;;;;5076413;28;20111;-53
2021/12/06 14:06:50;;;;;;;1.83;1.70;;;;;;;;;;5080505;28;20036;-50
2021/12/06 14:09:18;;;;;;;0.88;0.88;;;;;;;;;;5079225;28;20032;-49
2021/12/06 14:11:51;;;;;;;0.73;0.73;;;;;;;;;;5074256;28;20024;-48
2021/12/06 14:14:17;;;;;;;1.10;1.00;;;;;;;;;;5076296;28;20506;-47
2021/12/06 14:16:43;;;;;;;0.70;0.70;;;;;;;;;;5072820;28;20060;-49
2021/12/06 14:19:10;;;;;;;1.33;1.00;;;;;;;;;;5076833;28;20036;-52
2021/12/06 14:21:39;;;;;;;1.00;0.88;;;;;;;;;;5078487;28;20029;-47
2021/12/06 14:24:06;;;;;;;1.40;0.80;;;;;;;;;;5075024;28;20576;-46
2021/12/06 14:26:44;;;;;;;0.93;0.75;;;;;;;;;;5073506;28;20108;-51
2021/12/06 14:29:20;;;;;;;0.52;0.52;;;;;;;;;;5071917;28;20112;-51
2021/12/06 14:31:50;;;;;;;2.30;1.38;;;;;;;;;;5076197;28;20036;-47
2021/12/06 14:34:16;;;;;;;2.33;1.50;;;;;;;;;;5073607;28;20036;-49
2021/12/06 14:36:44;;;;;;;1.42;1.20;;;;;;;;;;5075075;28;20534;-49
2021/12/06 14:39:14;;;;;;;2.50;1.25;;;;;;;;;;5074290;28;20480;-49
2021/12/06 14:41:58;;;;;;;1.42;1.33;;;;;;;;;;5076819;28;20338;-48
2021/12/06 14:44:43;;;;;;;1.08;0.88;;;;;;;;;;5073826;28;20067;-48
2021/12/06 14:47:42;;;;;;;0.70;0.70;;;;;;;;;;5072206;28;20115;-53
2021/12/06 14:50:13;;;;;;;0.93;0.70;;;;;;;;;;5075102;28;20028;-45
2021/12/06 14:52:42;;;;;;;0.75;0.75;;;;;;;;;;5078954;28;20051;-47
2021/12/06 14:57:50;;;;;;;0.82;0.82;;;;;;;;;;5082504;28;20039;-47
2021/12/06 15:00:38;;;;;;;0.90;0.90;;;;;;;;;;5084037;28;20021;-47
2021/12/06 15:03:07;;;;;;;0.75;0.70;;;;;;;;;;5078105;28;20043;-48
2021/12/06 15:05:33;;;;;;;0.90;0.75;;;;;;;;;;5083607;28;20032;-46
2021/12/06 15:08:09;;;;;;;1.00;0.90;;;;;;;;;;5076714;28;20033;-49
2021/12/06 15:10:40;;;;;;;1.17;1.00;;;;;;;;;;5081253;28;20165;-48
2021/12/06 15:13:07;;;;;;;1.10;1.00;;;;;;;;;;5080550;28;20032;-51
2021/12/06 15:15:36;;;;;;;1.30;1.20;;;;;;;;;;5081321;28;20028;-46